sensor_id;sensor_type;location;lat;lon;timestamp;P1;durP1;ratioP1;P2;durP2;ratioP2
4001;SDS011;2015;48.670;9.060;2023-05-07T00:02:15;5.80;;;5.40;;
4001;SDS011;2015;48.670;9.060;2023-05-07T00:04:47;6.13;;;5.70;;
4001;SDS011;2015;48.670;9.060;2023-05-07T00:07:19;5.77;;;5.47;;
4001;SDS011;2015;48.670;9.060;2023-05-07T00:09:51;5.13;;;4.73;;
4001;SDS011;2015;48.670;9.060;2023-05-07T00:12:22;5.63;;;5.13;;
4001;SDS011;2015;48.670;9.060;2023-05-07T00:14:54;6.03;;;5.63;;
4001;SDS011;2015;48.670;9.060;2023-05-07T00:17:26;5.50;;;5.07;;
4001;SDS011;2015;48.670;9.060;2023-05-07T00:19:58;5.10;;;4.80;;
4001;SDS011;2015;48.670;9.060;2023-05-07T00:22:30;5.27;;;4.93;;
4001;SDS011;2015;48.670;9.060;2023-05-07T00:25:03;8.10;;;5.80;;
4001;SDS011;2015;48.670;9.060;2023-05-07T00:27:36;10.03;;;4.93;;
4001;SDS011;2015;48.670;9.060;2023-05-07T00:30:07;5.33;;;4.87;;
4001;SDS011;2015;48.670;9.060;2023-05-07T00:32:40;6.07;;;5.50;;
4001;SDS011;2015;48.670;9.060;2023-05-07T00:35:11;5.17;;;4.87;;
4001;SDS011;2015;48.670;9.060;2023-05-07T00:37:43;5.57;;;5.17;;
4001;SDS011;2015;48.670;9.060;2023-05-07T00:40:15;4.90;;;4.60;;
4001;SDS011;2015;48.670;9.060;2023-05-07T00:42:47;5.23;;;4.93;;
4001;SDS011;2015;48.670;9.060;2023-05-07T00:45:20;5.00;;;4.70;;
4001;SDS011;2015;48.670;9.060;2023-05-07T00:47:53;5.23;;;4.83;;
4001;SDS011;2015;48.670;9.060;2023-05-07T00:50:26;5.77;;;5.27;;
4001;SDS011;2015;48.670;9.060;2023-05-07T00:52:59;5.90;;;5.40;;
4001;SDS011;2015;48.670;9.060;2023-05-07T00:55:32;5.17;;;4.90;;
4001;SDS011;2015;48.670;9.060;2023-05-07T00:58:03;5.07;;;4.77;;
4001;SDS011;2015;48.670;9.060;2023-05-07T01:00:35;5.60;;;5.17;;
4001;SDS011;2015;48.670;9.060;2023-05-07T01:03:07;5.83;;;5.43;;
4001;SDS011;2015;48.670;9.060;2023-05-07T01:05:40;5.87;;;5.47;;
4001;SDS011;2015;48.670;9.060;2023-05-07T01:08:13;6.90;;;5.30;;
4001;SDS011;2015;48.670;9.060;2023-05-07T01:10:46;5.65;;;5.10;;
4001;SDS011;2015;48.670;9.060;2023-05-07T01:13:18;6.23;;;5.63;;
4001;SDS011;2015;48.670;9.060;2023-05-07T01:15:50;4.97;;;4.67;;
4001;SDS011;2015;48.670;9.060;2023-05-07T01:18:22;5.30;;;4.90;;
4001;SDS011;2015;48.670;9.060;2023-05-07T01:20:54;4.70;;;4.30;;
4001;SDS011;2015;48.670;9.060;2023-05-07T01:23:29;5.17;;;4.77;;
4001;SDS011;2015;48.670;9.060;2023-05-07T01:26:01;5.50;;;5.00;;
4001;SDS011;2015;48.670;9.060;2023-05-07T01:28:33;4.97;;;4.67;;
4001;SDS011;2015;48.670;9.060;2023-05-07T01:31:05;6.40;;;5.27;;
4001;SDS011;2015;48.670;9.060;2023-05-07T01:33:37;6.47;;;5.87;;
4001;SDS011;2015;48.670;9.060;2023-05-07T01:36:11;5.83;;;5.17;;
4001;SDS011;2015;48.670;9.060;2023-05-07T01:38:44;8.20;;;5.87;;
4001;SDS011;2015;48.670;9.060;2023-05-07T01:41:17;5.50;;;5.10;;
4001;SDS011;2015;48.670;9.060;2023-05-07T01:43:50;6.23;;;5.63;;
4001;SDS011;2015;48.670;9.060;2023-05-07T01:46:23;5.20;;;4.90;;
4001;SDS011;2015;48.670;9.060;2023-05-07T01:48:55;5.00;;;4.73;;
4001;SDS011;2015;48.670;9.060;2023-05-07T01:51:27;5.47;;;4.97;;
4001;SDS011;2015;48.670;9.060;2023-05-07T01:53:59;5.40;;;5.10;;
4001;SDS011;2015;48.670;9.060;2023-05-07T01:56:31;5.13;;;4.73;;
4001;SDS011;2015;48.670;9.060;2023-05-07T01:59:03;5.50;;;5.13;;
4001;SDS011;2015;48.670;9.060;2023-05-07T02:01:34;6.03;;;5.63;;
4001;SDS011;2015;48.670;9.060;2023-05-07T02:04:06;5.30;;;5.00;;
4001;SDS011;2015;48.670;9.060;2023-05-07T02:06:38;5.20;;;4.70;;
4001;SDS011;2015;48.670;9.060;2023-05-07T02:09:10;4.97;;;4.60;;
4001;SDS011;2015;48.670;9.060;2023-05-07T02:11:42;6.10;;;5.70;;
4001;SDS011;2015;48.670;9.060;2023-05-07T02:14:14;6.10;;;5.60;;
4001;SDS011;2015;48.670;9.060;2023-05-07T02:16:46;5.97;;;5.57;;
4001;SDS011;2015;48.670;9.060;2023-05-07T02:19:18;5.17;;;4.83;;
4001;SDS011;2015;48.670;9.060;2023-05-07T02:21:52;5.83;;;5.40;;
4001;SDS011;2015;48.670;9.060;2023-05-07T02:24:24;5.00;;;4.70;;
4001;SDS011;2015;48.670;9.060;2023-05-07T02:26:55;6.10;;;5.70;;
4001;SDS011;2015;48.670;9.060;2023-05-07T02:29:27;5.30;;;5.00;;
4001;SDS011;2015;48.670;9.060;2023-05-07T02:31:59;7.17;;;5.30;;
4001;SDS011;2015;48.670;9.060;2023-05-07T02:34:31;5.50;;;5.13;;
4001;SDS011;2015;48.670;9.060;2023-05-07T02:37:02;4.70;;;4.40;;
4001;SDS011;2015;48.670;9.060;2023-05-07T02:39:34;6.07;;;5.60;;
4001;SDS011;2015;48.670;9.060;2023-05-07T02:42:06;5.20;;;4.90;;
4001;SDS011;2015;48.670;9.060;2023-05-07T02:44:38;6.43;;;6.03;;
4001;SDS011;2015;48.670;9.060;2023-05-07T02:47:09;6.00;;;5.50;;
4001;SDS011;2015;48.670;9.060;2023-05-07T02:49:44;5.23;;;5.00;;
4001;SDS011;2015;48.670;9.060;2023-05-07T02:52:15;5.50;;;5.00;;
4001;SDS011;2015;48.670;9.060;2023-05-07T02:54:47;5.90;;;5.17;;
4001;SDS011;2015;48.670;9.060;2023-05-07T02:57:19;4.40;;;4.10;;
4001;SDS011;2015;48.670;9.060;2023-05-07T02:59:51;5.20;;;4.90;;
4001;SDS011;2015;48.670;9.060;2023-05-07T03:02:23;5.30;;;4.80;;
4001;SDS011;2015;48.670;9.060;2023-05-07T03:04:54;6.63;;;5.87;;
4001;SDS011;2015;48.670;9.060;2023-05-07T03:07:26;5.47;;;5.17;;
4001;SDS011;2015;48.670;9.060;2023-05-07T03:09:58;6.63;;;5.90;;
4001;SDS011;2015;48.670;9.060;2023-05-07T03:12:30;5.93;;;5.20;;
4001;SDS011;2015;48.670;9.060;2023-05-07T03:15:02;5.83;;;5.30;;
4001;SDS011;2015;48.670;9.060;2023-05-07T03:17:34;6.23;;;5.63;;
4001;SDS011;2015;48.670;9.060;2023-05-07T03:20:06;5.70;;;5.30;;
4001;SDS011;2015;48.670;9.060;2023-05-07T03:22:39;6.47;;;6.07;;
4001;SDS011;2015;48.670;9.060;2023-05-07T03:25:11;7.87;;;6.50;;
4001;SDS011;2015;48.670;9.060;2023-05-07T03:27:43;6.97;;;6.47;;
4001;SDS011;2015;48.670;9.060;2023-05-07T03:30:15;6.40;;;5.80;;
4001;SDS011;2015;48.670;9.060;2023-05-07T03:32:47;6.10;;;5.70;;
4001;SDS011;2015;48.670;9.060;2023-05-07T03:35:19;6.37;;;5.97;;
4001;SDS011;2015;48.670;9.060;2023-05-07T03:37:50;6.07;;;5.67;;
4001;SDS011;2015;48.670;9.060;2023-05-07T03:40:22;7.70;;;7.00;;
4001;SDS011;2015;48.670;9.060;2023-05-07T03:42:54;6.87;;;6.27;;
4001;SDS011;2015;48.670;9.060;2023-05-07T03:45:26;6.00;;;5.50;;
4001;SDS011;2015;48.670;9.060;2023-05-07T03:47:57;5.13;;;4.73;;
4001;SDS011;2015;48.670;9.060;2023-05-07T03:50:29;5.20;;;4.80;;
4001;SDS011;2015;48.670;9.060;2023-05-07T03:53:01;7.20;;;5.10;;
4001;SDS011;2015;48.670;9.060;2023-05-07T03:55:32;5.40;;;5.00;;
4001;SDS011;2015;48.670;9.060;2023-05-07T03:58:04;5.50;;;5.10;;
4001;SDS011;2015;48.670;9.060;2023-05-07T04:00:36;5.10;;;4.80;;
4001;SDS011;2015;48.670;9.060;2023-05-07T04:03:12;6.00;;;5.53;;
4001;SDS011;2015;48.670;9.060;2023-05-07T04:05:43;4.80;;;4.40;;
4001;SDS011;2015;48.670;9.060;2023-05-07T04:08:15;6.40;;;6.00;;
4001;SDS011;2015;48.670;9.060;2023-05-07T04:10:47;6.90;;;4.30;;
4001;SDS011;2015;48.670;9.060;2023-05-07T04:13:19;5.80;;;5.40;;
4001;SDS011;2015;48.670;9.060;2023-05-07T04:15:51;5.50;;;5.20;;
4001;SDS011;2015;48.670;9.060;2023-05-07T04:18:24;5.60;;;5.10;;
4001;SDS011;2015;48.670;9.060;2023-05-07T04:20:56;5.93;;;5.60;;
4001;SDS011;2015;48.670;9.060;2023-05-07T04:23:27;5.50;;;5.20;;
4001;SDS011;2015;48.670;9.060;2023-05-07T04:25:59;6.17;;;5.67;;
4001;SDS011;2015;48.670;9.060;2023-05-07T04:28:32;5.57;;;5.18;;
4001;SDS011;2015;48.670;9.060;2023-05-07T04:31:03;5.50;;;5.00;;
4001;SDS011;2015;48.670;9.060;2023-05-07T04:33:35;5.97;;;5.57;;
4001;SDS011;2015;48.670;9.060;2023-05-07T04:36:07;5.27;;;4.97;;
4001;SDS011;2015;48.670;9.060;2023-05-07T04:38:39;5.10;;;4.80;;
4001;SDS011;2015;48.670;9.060;2023-05-07T04:41:12;4.80;;;4.60;;
4001;SDS011;2015;48.670;9.060;2023-05-07T04:43:44;5.00;;;4.70;;
4001;SDS011;2015;48.670;9.060;2023-05-07T04:46:16;5.60;;;5.20;;
4001;SDS011;2015;48.670;9.060;2023-05-07T04:48:48;5.00;;;4.70;;
4001;SDS011;2015;48.670;9.060;2023-05-07T04:51:20;5.67;;;5.10;;
4001;SDS011;2015;48.670;9.060;2023-05-07T04:53:52;5.50;;;5.20;;
4001;SDS011;2015;48.670;9.060;2023-05-07T04:56:23;4.93;;;4.50;;
4001;SDS011;2015;48.670;9.060;2023-05-07T04:58:56;5.80;;;5.40;;
4001;SDS011;2015;48.670;9.060;2023-05-07T05:01:27;5.20;;;4.80;;
4001;SDS011;2015;48.670;9.060;2023-05-07T05:03:59;5.70;;;5.20;;
4001;SDS011;2015;48.670;9.060;2023-05-07T05:06:32;5.83;;;5.30;;
4001;SDS011;2015;48.670;9.060;2023-05-07T05:09:03;6.20;;;5.60;;
4001;SDS011;2015;48.670;9.060;2023-05-07T05:11:36;5.77;;;5.33;;
4001;SDS011;2015;48.670;9.060;2023-05-07T05:14:07;8.07;;;5.90;;
4001;SDS011;2015;48.670;9.060;2023-05-07T05:16:39;5.37;;;5.00;;
4001;SDS011;2015;48.670;9.060;2023-05-07T05:19:11;4.57;;;4.27;;
4001;SDS011;2015;48.670;9.060;2023-05-07T05:21:43;4.53;;;4.17;;
4001;SDS011;2015;48.670;9.060;2023-05-07T05:24:15;5.47;;;5.07;;
4001;SDS011;2015;48.670;9.060;2023-05-07T05:26:46;5.10;;;4.70;;
4001;SDS011;2015;48.670;9.060;2023-05-07T05:29:18;5.37;;;5.07;;
4001;SDS011;2015;48.670;9.060;2023-05-07T05:31:50;6.30;;;5.73;;
4001;SDS011;2015;48.670;9.060;2023-05-07T05:34:22;8.07;;;6.97;;
4001;SDS011;2015;48.670;9.060;2023-05-07T05:36:53;6.50;;;6.10;;
4001;SDS011;2015;48.670;9.060;2023-05-07T05:39:25;6.87;;;6.27;;
4001;SDS011;2015;48.670;9.060;2023-05-07T05:41:57;9.10;;;6.83;;
4001;SDS011;2015;48.670;9.060;2023-05-07T05:44:29;8.37;;;6.53;;
4001;SDS011;2015;48.670;9.060;2023-05-07T05:47:01;7.60;;;6.90;;
4001;SDS011;2015;48.670;9.060;2023-05-07T05:49:32;6.60;;;6.20;;
4001;SDS011;2015;48.670;9.060;2023-05-07T05:52:05;6.43;;;5.93;;
4001;SDS011;2015;48.670;9.060;2023-05-07T05:54:38;8.17;;;7.37;;
4001;SDS011;2015;48.670;9.060;2023-05-07T05:57:10;6.13;;;5.60;;
4001;SDS011;2015;48.670;9.060;2023-05-07T05:59:41;6.87;;;6.37;;
4001;SDS011;2015;48.670;9.060;2023-05-07T06:02:13;6.17;;;5.77;;
4001;SDS011;2015;48.670;9.060;2023-05-07T06:04:45;8.23;;;7.50;;
4001;SDS011;2015;48.670;9.060;2023-05-07T06:07:17;6.33;;;5.93;;
4001;SDS011;2015;48.670;9.060;2023-05-07T06:09:49;6.20;;;5.80;;
4001;SDS011;2015;48.670;9.060;2023-05-07T06:12:21;6.40;;;6.10;;
4001;SDS011;2015;48.670;9.060;2023-05-07T06:14:53;7.60;;;7.00;;
4001;SDS011;2015;48.670;9.060;2023-05-07T06:17:24;9.43;;;5.97;;
4001;SDS011;2015;48.670;9.060;2023-05-07T06:19:56;7.00;;;6.43;;
4001;SDS011;2015;48.670;9.060;2023-05-07T06:22:28;6.43;;;5.82;;
4001;SDS011;2015;48.670;9.060;2023-05-07T06:25:00;5.93;;;5.63;;
4001;SDS011;2015;48.670;9.060;2023-05-07T06:27:32;6.50;;;6.10;;
4001;SDS011;2015;48.670;9.060;2023-05-07T06:30:03;7.13;;;6.63;;
4001;SDS011;2015;48.670;9.060;2023-05-07T06:32:36;6.50;;;6.00;;
4001;SDS011;2015;48.670;9.060;2023-05-07T06:35:08;6.87;;;6.37;;
4001;SDS011;2015;48.670;9.060;2023-05-07T06:37:40;8.00;;;6.40;;
4001;SDS011;2015;48.670;9.060;2023-05-07T06:40:13;8.00;;;7.50;;
4001;SDS011;2015;48.670;9.060;2023-05-07T06:42:45;7.80;;;6.83;;
4001;SDS011;2015;48.670;9.060;2023-05-07T06:45:17;6.77;;;6.37;;
4001;SDS011;2015;48.670;9.060;2023-05-07T06:47:50;7.40;;;6.90;;
4001;SDS011;2015;48.670;9.060;2023-05-07T06:50:22;7.70;;;6.90;;
4001;SDS011;2015;48.670;9.060;2023-05-07T06:52:53;7.07;;;6.53;;
4001;SDS011;2015;48.670;9.060;2023-05-07T06:55:25;7.83;;;7.13;;
4001;SDS011;2015;48.670;9.060;2023-05-07T06:57:57;7.77;;;7.03;;
4001;SDS011;2015;48.670;9.060;2023-05-07T07:00:32;7.50;;;6.97;;
4001;SDS011;2015;48.670;9.060;2023-05-07T07:03:04;7.27;;;6.50;;
4001;SDS011;2015;48.670;9.060;2023-05-07T07:05:36;6.20;;;5.80;;
4001;SDS011;2015;48.670;9.060;2023-05-07T07:08:09;7.00;;;6.60;;
4001;SDS011;2015;48.670;9.060;2023-05-07T07:10:41;7.20;;;6.60;;
4001;SDS011;2015;48.670;9.060;2023-05-07T07:13:13;8.17;;;7.47;;
4001;SDS011;2015;48.670;9.060;2023-05-07T07:15:45;5.80;;;5.50;;
4001;SDS011;2015;48.670;9.060;2023-05-07T07:18:16;6.63;;;6.13;;
4001;SDS011;2015;48.670;9.060;2023-05-07T07:20:48;5.90;;;5.43;;
4001;SDS011;2015;48.670;9.060;2023-05-07T07:23:20;7.67;;;7.07;;
4001;SDS011;2015;48.670;9.060;2023-05-07T07:25:52;7.47;;;6.53;;
4001;SDS011;2015;48.670;9.060;2023-05-07T07:28:24;7.43;;;6.83;;
4001;SDS011;2015;48.670;9.060;2023-05-07T07:30:55;6.40;;;6.07;;
4001;SDS011;2015;48.670;9.060;2023-05-07T07:33:27;6.83;;;6.20;;
4001;SDS011;2015;48.670;9.060;2023-05-07T07:35:59;6.93;;;6.40;;
4001;SDS011;2015;48.670;9.060;2023-05-07T07:38:31;6.40;;;6.10;;
4001;SDS011;2015;48.670;9.060;2023-05-07T07:41:03;7.03;;;6.43;;
4001;SDS011;2015;48.670;9.060;2023-05-07T07:43:34;7.40;;;6.73;;
4001;SDS011;2015;48.670;9.060;2023-05-07T07:46:06;7.43;;;6.70;;
4001;SDS011;2015;48.670;9.060;2023-05-07T07:48:38;6.77;;;6.10;;
4001;SDS011;2015;48.670;9.060;2023-05-07T07:51:10;6.80;;;6.20;;
4001;SDS011;2015;48.670;9.060;2023-05-07T07:53:41;6.67;;;6.17;;
4001;SDS011;2015;48.670;9.060;2023-05-07T07:56:14;6.33;;;5.93;;
4001;SDS011;2015;48.670;9.060;2023-05-07T07:58:46;6.00;;;5.60;;
4001;SDS011;2015;48.670;9.060;2023-05-07T08:01:18;6.40;;;6.00;;
4001;SDS011;2015;48.670;9.060;2023-05-07T08:03:49;5.57;;;5.17;;
4001;SDS011;2015;48.670;9.060;2023-05-07T08:06:21;5.53;;;5.13;;
4001;SDS011;2015;48.670;9.060;2023-05-07T08:08:53;5.30;;;5.00;;
4001;SDS011;2015;48.670;9.060;2023-05-07T08:11:25;5.40;;;5.10;;
4001;SDS011;2015;48.670;9.060;2023-05-07T08:13:57;5.13;;;4.83;;
4001;SDS011;2015;48.670;9.060;2023-05-07T08:16:29;5.75;;;5.35;;
4001;SDS011;2015;48.670;9.060;2023-05-07T08:19:01;4.80;;;4.47;;
4001;SDS011;2015;48.670;9.060;2023-05-07T08:21:34;5.37;;;4.97;;
4001;SDS011;2015;48.670;9.060;2023-05-07T08:24:06;6.90;;;5.20;;
4001;SDS011;2015;48.670;9.060;2023-05-07T08:26:38;5.00;;;4.80;;
4001;SDS011;2015;48.670;9.060;2023-05-07T08:29:10;5.80;;;5.40;;
4001;SDS011;2015;48.670;9.060;2023-05-07T08:31:42;5.28;;;4.88;;
4001;SDS011;2015;48.670;9.060;2023-05-07T08:34:14;5.80;;;5.30;;
4001;SDS011;2015;48.670;9.060;2023-05-07T08:36:46;4.80;;;4.43;;
4001;SDS011;2015;48.670;9.060;2023-05-07T08:39:20;5.63;;;5.23;;
4001;SDS011;2015;48.670;9.060;2023-05-07T08:41:52;4.57;;;4.37;;
4001;SDS011;2015;48.670;9.060;2023-05-07T08:44:27;4.70;;;4.50;;
4001;SDS011;2015;48.670;9.060;2023-05-07T08:47:03;6.47;;;6.17;;
4001;SDS011;2015;48.670;9.060;2023-05-07T08:49:38;4.13;;;3.93;;
4001;SDS011;2015;48.670;9.060;2023-05-07T08:52:11;5.50;;;5.20;;
4001;SDS011;2015;48.670;9.060;2023-05-07T08:54:43;19.33;;;6.10;;
4001;SDS011;2015;48.670;9.060;2023-05-07T08:57:15;14.50;;;5.47;;
4001;SDS011;2015;48.670;9.060;2023-05-07T08:59:47;4.40;;;4.10;;
4001;SDS011;2015;48.670;9.060;2023-05-07T09:02:19;5.10;;;4.80;;
4001;SDS011;2015;48.670;9.060;2023-05-07T09:04:51;4.28;;;4.07;;
4001;SDS011;2015;48.670;9.060;2023-05-07T09:07:24;4.78;;;4.38;;
4001;SDS011;2015;48.670;9.060;2023-05-07T09:09:57;5.35;;;4.97;;
4001;SDS011;2015;48.670;9.060;2023-05-07T09:12:30;5.60;;;5.10;;
4001;SDS011;2015;48.670;9.060;2023-05-07T09:15:02;4.85;;;4.43;;
4001;SDS011;2015;48.670;9.060;2023-05-07T09:17:34;5.05;;;4.72;;
4001;SDS011;2015;48.670;9.060;2023-05-07T09:20:06;4.07;;;3.78;;
4001;SDS011;2015;48.670;9.060;2023-05-07T09:22:41;3.75;;;3.55;;
4001;SDS011;2015;48.670;9.060;2023-05-07T09:25:13;3.67;;;3.47;;
4001;SDS011;2015;48.670;9.060;2023-05-07T09:27:45;3.63;;;3.53;;
4001;SDS011;2015;48.670;9.060;2023-05-07T09:30:17;4.53;;;3.58;;
4001;SDS011;2015;48.670;9.060;2023-05-07T09:32:49;5.90;;;4.20;;
4001;SDS011;2015;48.670;9.060;2023-05-07T09:35:22;4.35;;;4.05;;
4001;SDS011;2015;48.670;9.060;2023-05-07T09:37:58;4.50;;;4.30;;
4001;SDS011;2015;48.670;9.060;2023-05-07T09:40:34;3.85;;;3.60;;
4001;SDS011;2015;48.670;9.060;2023-05-07T09:43:10;4.18;;;3.88;;
4001;SDS011;2015;48.670;9.060;2023-05-07T09:45:43;4.45;;;4.25;;
4001;SDS011;2015;48.670;9.060;2023-05-07T09:48:15;4.90;;;4.60;;
4001;SDS011;2015;48.670;9.060;2023-05-07T09:50:49;7.32;;;6.82;;
4001;SDS011;2015;48.670;9.060;2023-05-07T09:53:28;4.30;;;4.10;;
4001;SDS011;2015;48.670;9.060;2023-05-07T09:56:02;4.50;;;4.25;;
4001;SDS011;2015;48.670;9.060;2023-05-07T09:58:36;4.15;;;3.88;;
4001;SDS011;2015;48.670;9.060;2023-05-07T10:01:11;4.47;;;3.45;;
4001;SDS011;2015;48.670;9.060;2023-05-07T10:03:43;3.53;;;3.25;;
4001;SDS011;2015;48.670;9.060;2023-05-07T10:06:16;3.50;;;3.33;;
4001;SDS011;2015;48.670;9.060;2023-05-07T10:08:48;4.70;;;4.50;;
4001;SDS011;2015;48.670;9.060;2023-05-07T10:11:22;3.80;;;3.60;;
4001;SDS011;2015;48.670;9.060;2023-05-07T10:13:54;3.83;;;3.70;;
4001;SDS011;2015;48.670;9.060;2023-05-07T10:16:26;5.45;;;4.50;;
4001;SDS011;2015;48.670;9.060;2023-05-07T10:18:59;4.90;;;4.63;;
4001;SDS011;2015;48.670;9.060;2023-05-07T10:21:38;4.85;;;4.55;;
4001;SDS011;2015;48.670;9.060;2023-05-07T10:24:29;4.90;;;4.47;;
4001;SDS011;2015;48.670;9.060;2023-05-07T10:27:10;4.68;;;4.43;;
4001;SDS011;2015;48.670;9.060;2023-05-07T10:29:45;4.68;;;4.20;;
4001;SDS011;2015;48.670;9.060;2023-05-07T10:32:51;4.95;;;4.65;;
4001;SDS011;2015;48.670;9.060;2023-05-07T10:35:29;4.00;;;3.60;;
4001;SDS011;2015;48.670;9.060;2023-05-07T10:38:03;4.53;;;4.32;;
4001;SDS011;2015;48.670;9.060;2023-05-07T10:40:35;5.28;;;4.88;;
4001;SDS011;2015;48.670;9.060;2023-05-07T10:43:08;4.30;;;4.10;;
4001;SDS011;2015;48.670;9.060;2023-05-07T10:45:41;4.97;;;4.13;;
4001;SDS011;2015;48.670;9.060;2023-05-07T10:48:13;4.07;;;3.85;;
4001;SDS011;2015;48.670;9.060;2023-05-07T10:50:49;4.07;;;3.88;;
4001;SDS011;2015;48.670;9.060;2023-05-07T10:53:41;4.40;;;4.10;;
4001;SDS011;2015;48.670;9.060;2023-05-07T10:58:50;4.55;;;3.90;;
4001;SDS011;2015;48.670;9.060;2023-05-07T11:01:48;4.63;;;4.43;;
4001;SDS011;2015;48.670;9.060;2023-05-07T11:04:30;4.55;;;4.35;;
4001;SDS011;2015;48.670;9.060;2023-05-07T11:15:14;3.95;;;3.75;;
4001;SDS011;2015;48.670;9.060;2023-05-07T11:18:04;4.38;;;4.07;;
4001;SDS011;2015;48.670;9.060;2023-05-07T11:20:46;4.15;;;3.95;;
4001;SDS011;2015;48.670;9.060;2023-05-07T11:26:10;4.03;;;3.83;;
4001;SDS011;2015;48.670;9.060;2023-05-07T11:28:42;4.43;;;4.03;;
4001;SDS011;2015;48.670;9.060;2023-05-07T11:31:14;4.40;;;4.20;;
4001;SDS011;2015;48.670;9.060;2023-05-07T11:33:53;4.50;;;4.10;;
4001;SDS011;2015;48.670;9.060;2023-05-07T11:36:26;4.50;;;4.20;;
4001;SDS011;2015;48.670;9.060;2023-05-07T11:39:02;4.90;;;4.60;;
4001;SDS011;2015;48.670;9.060;2023-05-07T11:41:36;4.90;;;4.50;;
4001;SDS011;2015;48.670;9.060;2023-05-07T11:44:08;4.47;;;4.10;;
4001;SDS011;2015;48.670;9.060;2023-05-07T11:46:42;4.27;;;3.83;;
4001;SDS011;2015;48.670;9.060;2023-05-07T11:49:18;4.70;;;4.37;;
4001;SDS011;2015;48.670;9.060;2023-05-07T11:51:50;4.47;;;4.17;;
4001;SDS011;2015;48.670;9.060;2023-05-07T11:54:21;5.43;;;4.50;;
4001;SDS011;2015;48.670;9.060;2023-05-07T11:56:53;5.40;;;5.00;;
4001;SDS011;2015;48.670;9.060;2023-05-07T11:59:27;5.20;;;4.90;;
4001;SDS011;2015;48.670;9.060;2023-05-07T12:01:59;5.33;;;4.93;;
4001;SDS011;2015;48.670;9.060;2023-05-07T12:04:31;5.75;;;4.40;;
4001;SDS011;2015;48.670;9.060;2023-05-07T12:07:02;6.63;;;4.97;;
4001;SDS011;2015;48.670;9.060;2023-05-07T12:09:34;6.03;;;4.30;;
4001;SDS011;2015;48.670;9.060;2023-05-07T12:12:06;3.73;;;3.53;;
4001;SDS011;2015;48.670;9.060;2023-05-07T12:14:42;4.23;;;3.63;;
4001;SDS011;2015;48.670;9.060;2023-05-07T12:17:16;4.27;;;3.40;;
4001;SDS011;2015;48.670;9.060;2023-05-07T12:19:48;6.83;;;3.20;;
4001;SDS011;2015;48.670;9.060;2023-05-07T12:22:20;3.40;;;2.83;;
4001;SDS011;2015;48.670;9.060;2023-05-07T12:24:57;4.60;;;3.03;;
4001;SDS011;2015;48.670;9.060;2023-05-07T12:27:30;5.07;;;3.30;;
4001;SDS011;2015;48.670;9.060;2023-05-07T12:30:02;3.57;;;3.27;;
4001;SDS011;2015;48.670;9.060;2023-05-07T12:32:34;5.10;;;4.70;;
4001;SDS011;2015;48.670;9.060;2023-05-07T12:35:08;8.33;;;7.33;;
4001;SDS011;2015;48.670;9.060;2023-05-07T12:37:40;14.90;;;7.00;;
4001;SDS011;2015;48.670;9.060;2023-05-07T12:40:12;18.47;;;9.57;;
4001;SDS011;2015;48.670;9.060;2023-05-07T12:42:44;20.83;;;8.80;;
4001;SDS011;2015;48.670;9.060;2023-05-07T12:45:16;24.87;;;11.40;;
4001;SDS011;2015;48.670;9.060;2023-05-07T12:47:48;34.60;;;10.50;;
4001;SDS011;2015;48.670;9.060;2023-05-07T12:50:20;38.60;;;12.47;;
4001;SDS011;2015;48.670;9.060;2023-05-07T12:52:52;19.43;;;11.50;;
4001;SDS011;2015;48.670;9.060;2023-05-07T12:55:24;22.53;;;11.07;;
4001;SDS011;2015;48.670;9.060;2023-05-07T12:58:00;23.80;;;10.50;;
4001;SDS011;2015;48.670;9.060;2023-05-07T13:00:34;19.30;;;12.10;;
4001;SDS011;2015;48.670;9.060;2023-05-07T13:03:10;18.23;;;10.13;;
4001;SDS011;2015;48.670;9.060;2023-05-07T13:05:42;12.73;;;9.13;;
4001;SDS011;2015;48.670;9.060;2023-05-07T13:08:23;6.60;;;6.00;;
4001;SDS011;2015;48.670;9.060;2023-05-07T13:10:56;6.97;;;6.37;;
4001;SDS011;2015;48.670;9.060;2023-05-07T13:13:35;6.40;;;6.00;;
4001;SDS011;2015;48.670;9.060;2023-05-07T13:16:09;6.80;;;6.33;;
4001;SDS011;2015;48.670;9.060;2023-05-07T13:18:43;18.40;;;8.50;;
4001;SDS011;2015;48.670;9.060;2023-05-07T13:21:17;9.40;;;8.40;;
4001;SDS011;2015;48.670;9.060;2023-05-07T13:23:48;9.67;;;6.70;;
4001;SDS011;2015;48.670;9.060;2023-05-07T13:26:20;15.77;;;8.30;;
4001;SDS011;2015;48.670;9.060;2023-05-07T13:28:57;14.07;;;12.63;;
4001;SDS011;2015;48.670;9.060;2023-05-07T13:31:29;6.67;;;6.00;;
4001;SDS011;2015;48.670;9.060;2023-05-07T13:34:01;7.57;;;6.03;;
4001;SDS011;2015;48.670;9.060;2023-05-07T13:36:32;6.50;;;4.20;;
4001;SDS011;2015;48.670;9.060;2023-05-07T13:39:08;6.27;;;5.77;;
4001;SDS011;2015;48.670;9.060;2023-05-07T13:41:40;5.50;;;5.10;;
4001;SDS011;2015;48.670;9.060;2023-05-07T13:44:12;13.87;;;6.57;;
4001;SDS011;2015;48.670;9.060;2023-05-07T13:46:43;8.37;;;6.17;;
4001;SDS011;2015;48.670;9.060;2023-05-07T13:49:15;14.27;;;7.10;;
4001;SDS011;2015;48.670;9.060;2023-05-07T13:51:47;17.77;;;7.43;;
4001;SDS011;2015;48.670;9.060;2023-05-07T13:54:19;7.07;;;6.37;;
4001;SDS011;2015;48.670;9.060;2023-05-07T13:56:50;7.50;;;6.80;;
4001;SDS011;2015;48.670;9.060;2023-05-07T13:59:22;8.30;;;6.20;;
4001;SDS011;2015;48.670;9.060;2023-05-07T14:01:54;8.40;;;7.07;;
4001;SDS011;2015;48.670;9.060;2023-05-07T14:04:26;8.63;;;7.73;;
4001;SDS011;2015;48.670;9.060;2023-05-07T14:06:57;8.60;;;7.70;;
4001;SDS011;2015;48.670;9.060;2023-05-07T14:09:29;7.20;;;6.67;;
4001;SDS011;2015;48.670;9.060;2023-05-07T14:12:01;8.70;;;7.77;;
4001;SDS011;2015;48.670;9.060;2023-05-07T14:14:33;8.87;;;8.17;;
4001;SDS011;2015;48.670;9.060;2023-05-07T14:17:05;7.37;;;6.70;;
4001;SDS011;2015;48.670;9.060;2023-05-07T14:19:36;6.83;;;6.33;;
4001;SDS011;2015;48.670;9.060;2023-05-07T14:22:08;7.73;;;6.63;;
4001;SDS011;2015;48.670;9.060;2023-05-07T14:24:40;6.35;;;5.65;;
4001;SDS011;2015;48.670;9.060;2023-05-07T14:27:12;13.03;;;7.50;;
4001;SDS011;2015;48.670;9.060;2023-05-07T14:29:44;8.00;;;6.70;;
4001;SDS011;2015;48.670;9.060;2023-05-07T14:32:17;8.60;;;7.70;;
4001;SDS011;2015;48.670;9.060;2023-05-07T14:34:49;10.53;;;7.00;;
4001;SDS011;2015;48.670;9.060;2023-05-07T14:37:21;9.80;;;7.87;;
4001;SDS011;2015;48.670;9.060;2023-05-07T14:39:53;7.77;;;6.97;;
4001;SDS011;2015;48.670;9.060;2023-05-07T14:42:25;8.80;;;7.63;;
4001;SDS011;2015;48.670;9.060;2023-05-07T14:44:56;8.17;;;6.33;;
4001;SDS011;2015;48.670;9.060;2023-05-07T14:47:28;7.97;;;7.27;;
4001;SDS011;2015;48.670;9.060;2023-05-07T14:50:00;11.43;;;7.50;;
4001;SDS011;2015;48.670;9.060;2023-05-07T14:52:32;7.43;;;6.83;;
4001;SDS011;2015;48.670;9.060;2023-05-07T14:55:04;9.00;;;8.10;;
4001;SDS011;2015;48.670;9.060;2023-05-07T14:57:36;7.57;;;6.97;;
4001;SDS011;2015;48.670;9.060;2023-05-07T15:00:09;7.77;;;7.03;;
4001;SDS011;2015;48.670;9.060;2023-05-07T15:02:42;10.00;;;8.83;;
4001;SDS011;2015;48.670;9.060;2023-05-07T15:05:14;8.00;;;7.30;;
4001;SDS011;2015;48.670;9.060;2023-05-07T15:07:46;8.70;;;8.00;;
4001;SDS011;2015;48.670;9.060;2023-05-07T15:10:17;8.57;;;7.80;;
4001;SDS011;2015;48.670;9.060;2023-05-07T15:12:49;7.90;;;7.40;;
4001;SDS011;2015;48.670;9.060;2023-05-07T15:15:21;7.80;;;7.30;;
4001;SDS011;2015;48.670;9.060;2023-05-07T15:17:53;5.97;;;5.53;;
4001;SDS011;2015;48.670;9.060;2023-05-07T15:20:25;6.72;;;6.22;;
4001;SDS011;2015;48.670;9.060;2023-05-07T15:22:57;7.43;;;6.63;;
4001;SDS011;2015;48.670;9.060;2023-05-07T15:25:29;6.90;;;6.40;;
4001;SDS011;2015;48.670;9.060;2023-05-07T15:28:02;6.93;;;6.33;;
4001;SDS011;2015;48.670;9.060;2023-05-07T15:30:34;6.67;;;6.27;;
4001;SDS011;2015;48.670;9.060;2023-05-07T15:33:05;6.80;;;6.20;;
4001;SDS011;2015;48.670;9.060;2023-05-07T15:35:37;6.97;;;6.27;;
4001;SDS011;2015;48.670;9.060;2023-05-07T15:38:09;6.20;;;5.67;;
4001;SDS011;2015;48.670;9.060;2023-05-07T15:40:41;6.27;;;5.67;;
4001;SDS011;2015;48.670;9.060;2023-05-07T15:43:13;5.73;;;5.23;;
4001;SDS011;2015;48.670;9.060;2023-05-07T15:45:45;6.60;;;6.07;;
4001;SDS011;2015;48.670;9.060;2023-05-07T15:48:17;5.60;;;5.30;;
4001;SDS011;2015;48.670;9.060;2023-05-07T15:50:49;5.33;;;4.67;;
4001;SDS011;2015;48.670;9.060;2023-05-07T15:53:20;5.40;;;5.00;;
4001;SDS011;2015;48.670;9.060;2023-05-07T15:55:52;6.57;;;5.90;;
4001;SDS011;2015;48.670;9.060;2023-05-07T15:58:24;7.43;;;6.60;;
4001;SDS011;2015;48.670;9.060;2023-05-07T16:00:57;7.23;;;6.73;;
4001;SDS011;2015;48.670;9.060;2023-05-07T16:03:31;6.80;;;6.30;;